Time;durP1;ratioP1;P1;durP2;ratioP2;P2;SDS_P1;SDS_P2;PMS_P1;PMS_P2;Temp;Humidity;BMP_temperature;BMP_pressure;BME280_temperature;BME280_humidity;BME280_pressure;Samples;Min_cycle;Max_cycle;Signal;HPM_P1;HPM_P2
2022/06/23 00:00:36;;;;;;;;;;;12.00;99.90;;;;;;5114440;27;19919;-75
2022/06/23 00:03:03;;;;;;;;;;;12.00;99.90;;;;;;5110243;28;20064;-75
2022/06/23 00:05:35;;;;;;;;;;;12.00;99.90;;;;;;5098079;28;19943;-75
2022/06/23 00:08:01;;;;;;;;;;;11.90;99.90;;;;;;5125684;27;20337;-76
2022/06/23 00:10:33;;;;;;;;;;;12.00;99.90;;;;;;5114373;27;20283;-76
2022/06/23 00:12:58;;;;;;;;;;;11.90;99.90;;;;;;5131753;27;19919;-76
2022/06/23 00:15:29;;;;;;;;;;;11.90;99.90;;;;;;5110989;28;19928;-75
2022/06/23 00:17:54;;;;;;;;;;;11.90;99.90;;;;;;5105497;28;20010;-76
2022/06/23 00:20:23;;;;;;;;;;;12.00;99.90;;;;;;5112659;27;20008;-76
2022/06/23 00:22:51;;;;;;;;;;;11.90;99.90;;;;;;5111473;28;19942;-75
2022/06/23 00:25:37;;;;;;;;;;;12.00;99.90;;;;;;5111163;28;19926;-75
2022/06/23 00:28:02;;;;;;;;;;;11.90;99.90;;;;;;5111198;28;19931;-75
2022/06/23 00:30:34;;;;;;;;;;;11.90;99.90;;;;;;5114656;28;19919;-75
2022/06/23 00:33:19;;;;;;;;;;;11.90;99.90;;;;;;5131116;28;20342;-75
2022/06/23 00:35:45;;;;;;;;;;;11.90;99.90;;;;;;5131519;28;19928;-76
2022/06/23 00:38:28;;;;;;;;;;;11.90;99.90;;;;;;5120051;28;19920;-76
2022/06/23 00:40:55;;;;;;;;;;;11.90;99.90;;;;;;5111070;28;19947;-76
2022/06/23 00:43:21;;;;;;;;;;;11.80;99.90;;;;;;5110207;28;20011;-75
2022/06/23 00:45:53;;;;;;;;;;;11.80;99.90;;;;;;5098659;28;19919;-76
2022/06/23 00:48:19;;;;;;;;;;;11.80;99.90;;;;;;5118251;28;19973;-75
2022/06/23 00:50:47;;;;;;;;;;;11.80;99.90;;;;;;5107408;28;19923;-75
2022/06/23 00:53:12;;;;;;;;;;;11.70;99.90;;;;;;5108130;28;19926;-75
2022/06/23 00:55:38;;;;;;;;;;;11.70;99.90;;;;;;5122680;28;20284;-76
2022/06/23 00:58:07;;;;;;;;;;;11.60;99.90;;;;;;5122977;28;19955;-75
2022/06/23 01:00:35;;;;;;;;;;;11.60;99.90;;;;;;5120917;28;20385;-76
2022/06/23 01:03:11;;;;;;;;;;;11.60;99.90;;;;;;5131479;28;20379;-76
2022/06/23 01:05:54;;;;;;;;;;;11.60;99.90;;;;;;5131615;28;20006;-76
2022/06/23 01:08:21;;;;;;;;;;;11.50;99.90;;;;;;5110383;28;20013;-76
2022/06/23 01:11:07;;;;;;;;;;;11.50;99.90;;;;;;5111274;28;20026;-76
2022/06/23 01:13:50;;;;;;;;;;;11.50;99.90;;;;;;5125098;28;19968;-76
2022/06/23 01:16:16;;;;;;;;;;;11.40;99.90;;;;;;5110957;28;19974;-75
2022/06/23 01:19:05;;;;;;;;;;;11.40;99.90;;;;;;5130406;28;19919;-76
2022/06/23 01:21:39;;;;;;;;;;;11.40;99.90;;;;;;5095062;27;19931;-75
2022/06/23 01:24:17;;;;;;;;;;;11.40;99.90;;;;;;5114797;28;19924;-76
2022/06/23 01:26:59;;;;;;;;;;;11.40;99.90;;;;;;5128001;27;19927;-75
2022/06/23 01:29:28;;;;;;;;;;;11.30;99.90;;;;;;5114137;28;19924;-76
2022/06/23 01:31:56;;;;;;;;;;;11.30;99.90;;;;;;5114261;28;19920;-75
2022/06/23 01:34:39;;;;;;;;;;;11.30;99.90;;;;;;5114205;28;19928;-75
2022/06/23 01:37:11;;;;;;;;;;;11.30;99.90;;;;;;5130945;27;20011;-75
2022/06/23 01:39:45;;;;;;;;;;;11.30;99.90;;;;;;5133633;27;20431;-76
2022/06/23 01:42:20;;;;;;;;;;;11.20;99.90;;;;;;5106173;27;19919;-75
2022/06/23 01:44:51;;;;;;;;;;;11.20;99.90;;;;;;5114122;28;20415;-76
2022/06/23 01:47:39;;;;;;;;;;;11.20;99.90;;;;;;5114346;28;20269;-76
2022/06/23 01:50:14;;;;;;;;;;;11.20;99.90;;;;;;5107392;28;19928;-76
2022/06/23 01:52:40;;;;;;;;;;;11.20;99.90;;;;;;5099421;28;19970;-76
2022/06/23 01:55:14;;;;;;;;;;;11.10;99.90;;;;;;5100224;28;19924;-76
2022/06/23 01:57:48;;;;;;;;;;;11.10;99.90;;;;;;5113740;28;19986;-76
2022/06/23 02:00:14;;;;;;;;;;;11.10;99.90;;;;;;5109495;28;19966;-76
2022/06/23 02:02:47;;;;;;;;;;;11.10;99.90;;;;;;5113402;28;19974;-76
2022/06/23 02:05:13;;;;;;;;;;;11.10;99.90;;;;;;5120886;27;20005;-76
2022/06/23 02:07:38;;;;;;;;;;;11.10;99.90;;;;;;5133311;27;20006;-76
2022/06/23 02:10:07;;;;;;;;;;;11.20;99.90;;;;;;5114215;28;20369;-76
2022/06/23 02:12:42;;;;;;;;;;;11.20;99.90;;;;;;5114114;28;20342;-76
2022/06/23 02:15:17;;;;;;;;;;;11.30;99.90;;;;;;5126272;27;19931;-76
2022/06/23 02:17:49;;;;;;;;;;;11.30;99.90;;;;;;5113088;28;19970;-76
2022/06/23 02:20:18;;;;;;;;;;;11.30;99.90;;;;;;5101039;28;19923;-76
2022/06/23 02:22:45;;;;;;;;;;;11.30;99.90;;;;;;5112587;28;20762;-76
2022/06/23 02:25:18;;;;;;;;;;;11.30;99.90;;;;;;5101654;27;20029;-76
2022/06/23 02:27:46;;;;;;;;;;;11.40;99.90;;;;;;5096097;28;19930;-76
2022/06/23 02:30:31;;;;;;;;;;;11.40;99.90;;;;;;5099880;28;19920;-76
2022/06/23 02:33:15;;;;;;;;;;;11.40;99.90;;;;;;5111995;28;19975;-76
2022/06/23 02:35:46;;;;;;;;;;;11.40;99.90;;;;;;5112898;28;19924;-76
2022/06/23 02:38:19;;;;;;;;;;;11.40;99.90;;;;;;5112515;28;19942;-76
2022/06/23 02:40:47;;;;;;;;;;;11.40;99.90;;;;;;5112904;28;19971;-76
2022/06/23 02:43:25;;;;;;;;;;;11.40;99.90;;;;;;5113156;28;19955;-76
2022/06/23 02:46:17;;;;;;;;;;;11.40;99.90;;;;;;5113109;28;20381;-77
2022/06/23 02:49:01;;;;;;;;;;;11.40;99.90;;;;;;5093819;28;19920;-77
2022/06/23 02:51:36;;;;;;;;;;;11.40;99.90;;;;;;5099431;27;20265;-76
2022/06/23 02:54:05;;;;;;;;;;;11.40;99.90;;;;;;5120832;27;19920;-76
2022/06/23 02:56:48;;;;;;;;;;;11.30;99.90;;;;;;5112166;28;19935;-76
2022/06/23 02:59:13;;;;;;;;;;;11.30;99.90;;;;;;5112597;28;19964;-76
2022/06/23 03:01:39;;;;;;;;;;;11.30;99.90;;;;;;5112009;28;19919;-76
2022/06/23 03:04:10;;;;;;;;;;;12.60;99.90;;;;;;5124953;27;20384;-76
2022/06/23 03:06:39;;;;;;;;;;;11.20;99.90;;;;;;5131604;27;20423;-76
2022/06/23 03:09:11;;;;;;;;;;;11.20;99.90;;;;;;5118195;27;19972;-76
2022/06/23 03:11:58;;;;;;;;;;;11.20;99.90;;;;;;5094838;28;20384;-76
2022/06/23 03:14:29;;;;;;;;;;;11.20;99.90;;;;;;5112749;28;20315;-76
2022/06/23 03:16:59;;;;;;;;;;;11.20;99.90;;;;;;5095922;28;20254;-76
2022/06/23 03:19:31;;;;;;;;;;;11.20;99.90;;;;;;5110227;28;20007;-75
2022/06/23 03:22:20;;;;;;;;;;;11.20;99.90;;;;;;5094626;28;19926;-76
2022/06/23 03:25:11;;;;;;;;;;;11.20;99.90;;;;;;5095897;27;19967;-75
2022/06/23 03:27:58;;;;;;;;;;;11.20;99.90;;;;;;5112280;28;20288;-76
2022/06/23 03:30:28;;;;;;;;;;;11.20;99.90;;;;;;5112628;28;19919;-76
2022/06/23 03:32:56;;;;;;;;;;;11.10;99.90;;;;;;5125891;27;20278;-76
2022/06/23 03:35:28;;;;;;;;;;;11.10;99.90;;;;;;5112010;28;19928;-76
2022/06/23 03:38:12;;;;;;;;;;;11.10;99.90;;;;;;5111930;28;20261;-75
2022/06/23 03:43:31;;;;;;;;;;;11.20;99.90;;;;;;5111872;28;19973;-76
2022/06/23 03:45:59;;;;;;;;;;;11.30;99.90;;;;;;5112198;28;19926;-75
2022/06/23 03:48:28;;;;;;;;;;;11.40;99.90;;;;;;5111744;28;19928;-75
2022/06/23 03:50:57;;;;;;;;;;;11.40;99.90;;;;;;5110123;28;19955;-76
2022/06/23 03:53:31;;;;;;;;;;;11.50;99.90;;;;;;5111807;28;19966;-76
2022/06/23 03:55:59;;;;;;;;;;;11.50;99.90;;;;;;5111499;28;19924;-76
2022/06/23 03:58:31;;;;;;;;;;;11.60;99.90;;;;;;5112057;28;19930;-75
2022/06/23 04:01:00;;;;;;;;;;;11.60;99.90;;;;;;5126327;27;19920;-76
2022/06/23 04:03:29;;;;;;;;;;;11.70;99.90;;;;;;5132021;27;19974;-75
2022/06/23 04:05:54;;;;;;;;;;;11.80;99.90;;;;;;5118042;27;19928;-75
2022/06/23 04:08:21;;;;;;;;;;;11.90;99.90;;;;;;5110744;28;19935;-76
2022/06/23 04:10:47;;;;;;;;;;;11.90;99.90;;;;;;5104417;28;19973;-76
2022/06/23 04:13:15;;;;;;;;;;;12.00;99.90;;;;;;5111326;28;19976;-76
2022/06/23 04:15:42;;;;;;;;;;;12.10;99.90;;;;;;5094021;28;20019;-75
2022/06/23 04:18:10;;;;;;;;;;;12.20;99.90;;;;;;5111553;28;20351;-75
2022/06/23 04:20:40;;;;;;;;;;;12.20;99.90;;;;;;5119626;27;20379;-75
2022/06/23 04:23:06;;;;;;;;;;;12.30;99.90;;;;;;5129811;27;19968;-76
2022/06/23 04:25:40;;;;;;;;;;;12.40;99.90;;;;;;5094329;28;19924;-76
2022/06/23 04:28:11;;;;;;;;;;;12.50;99.90;;;;;;5108101;27;20018;-76
2022/06/23 04:30:38;;;;;;;;;;;12.50;99.90;;;;;;5110949;28;19927;-75
2022/06/23 04:33:05;;;;;;;;;;;12.60;99.90;;;;;;5111118;28;19920;-76
2022/06/23 04:35:36;;;;;;;;;;;12.70;99.90;;;;;;5116013;28;19931;-76
2022/06/23 04:38:05;;;;;;;;;;;12.80;99.90;;;;;;5118641;28;19920;-75
2022/06/23 04:40:38;;;;;;;;;;;12.80;99.90;;;;;;5111732;28;19920;-76
2022/06/23 04:43:16;;;;;;;;;;;13.00;99.90;;;;;;5111447;28;19919;-76
2022/06/23 04:45:51;;;;;;;;;;;13.10;99.90;;;;;;5111026;28;20333;-76
2022/06/23 04:48:26;;;;;;;;;;;13.20;99.90;;;;;;5110980;28;19926;-76
2022/06/23 04:51:00;;;;;;;;;;;13.20;99.90;;;;;;5109176;28;19988;-75
2022/06/23 04:53:31;;;;;;;;;;;13.30;99.90;;;;;;5098400;28;20238;-76
2022/06/23 04:56:01;;;;;;;;;;;13.40;99.90;;;;;;5126929;27;19924;-76
2022/06/23 04:58:27;;;;;;;;;;;13.40;99.90;;;;;;5126681;27;20281;-76
2022/06/23 05:00:53;;;;;;;;;;;13.50;99.90;;;;;;5118461;27;19998;-76
2022/06/23 05:03:21;;;;;;;;;;;13.70;99.90;;;;;;5131157;27;19920;-76
2022/06/23 05:05:54;;;;;;;;;;;13.80;99.90;;;;;;5114934;28;19931;-76
2022/06/23 05:08:26;;;;;;;;;;;13.80;99.90;;;;;;5114327;28;20006;-76
2022/06/23 05:10:51;;;;;;;;;;;13.90;99.90;;;;;;5097869;28;20392;-76
2022/06/23 05:13:29;;;;;;;;;;;14.00;99.90;;;;;;5114781;28;19962;-76
2022/06/23 05:16:05;;;;;;;;;;;14.10;99.90;;;;;;5114602;28;20014;-75
2022/06/23 05:18:40;;;;;;;;;;;14.20;99.90;;;;;;5120201;27;20291;-76
2022/06/23 05:21:13;;;;;;;;;;;14.30;99.90;;;;;;5135494;27;19968;-76
2022/06/23 05:23:40;;;;;;;;;;;14.40;99.90;;;;;;5134620;27;19966;-75
2022/06/23 05:26:12;;;;;;;;;;;14.50;99.90;;;;;;5121957;27;19919;-76
2022/06/23 05:28:38;;;;;;;;;;;14.50;99.90;;;;;;5133213;27;19923;-75
2022/06/23 05:31:08;;;;;;;;;;;14.60;99.90;;;;;;5136051;27;19925;-76
2022/06/23 05:33:46;;;;;;;;;;;14.70;99.90;;;;;;5103045;27;19920;-76
2022/06/23 05:36:14;;;;;;;;;;;14.90;99.90;;;;;;5123890;27;19924;-76
2022/06/23 05:38:55;;;;;;;;;;;14.90;99.90;;;;;;5129742;27;19967;-76
2022/06/23 05:41:25;;;;;;;;;;;15.10;99.90;;;;;;5135158;27;19920;-76
2022/06/23 05:43:54;;;;;;;;;;;15.20;99.90;;;;;;5132222;27;19919;-76
2022/06/23 05:46:25;;;;;;;;;;;15.20;99.90;;;;;;5134578;27;19927;-76
2022/06/23 05:48:58;;;;;;;;;;;15.30;99.90;;;;;;5120671;27;19940;-76
2022/06/23 05:51:27;;;;;;;;;;;15.40;99.90;;;;;;5113251;27;19920;-76
2022/06/23 05:54:00;;;;;;;;;;;15.50;99.90;;;;;;5113815;28;20392;-75
2022/06/23 05:56:25;;;;;;;;;;;15.60;99.90;;;;;;5113791;28;19928;-76
2022/06/23 05:59:02;;;;;;;;;;;15.70;99.90;;;;;;5113622;28;19927;-77
2022/06/23 06:01:30;;;;;;;;;;;15.80;99.90;;;;;;5113708;28;19999;-76
2022/06/23 06:04:03;;;;;;;;;;;15.90;99.90;;;;;;5113216;28;19927;-76
2022/06/23 06:06:29;;;;;;;;;;;16.00;99.90;;;;;;5111607;28;19920;-76
2022/06/23 06:12:00;;;;;;;;;;;16.10;99.90;;;;;;5113399;28;20624;-76
2022/06/23 06:14:28;;;;;;;;;;;16.20;99.90;;;;;;5124075;27;19923;-76
2022/06/23 06:16:56;;;;;;;;;;;16.30;99.90;;;;;;5116574;27;19931;-76
2022/06/23 06:19:23;;;;;;;;;;;16.30;99.90;;;;;;5134136;27;19920;-76
2022/06/23 06:21:52;;;;;;;;;;;16.50;99.90;;;;;;5116152;27;20006;-76
2022/06/23 06:24:19;;;;;;;;;;;16.50;99.90;;;;;;5134176;27;19927;-76
2022/06/23 06:26:46;;;;;;;;;;;16.60;99.90;;;;;;5116803;27;19931;-76
2022/06/23 06:29:18;;;;;;;;;;;16.70;99.90;;;;;;5134245;27;19942;-77
2022/06/23 06:32:03;;;;;;;;;;;16.70;99.90;;;;;;5116804;27;19935;-76
2022/06/23 06:34:31;;;;;;;;;;;16.80;99.90;;;;;;5061530;28;20007;-76
2022/06/23 06:36:57;;;;;;;;;;;16.90;99.90;;;;;;5110199;27;19926;-76
2022/06/23 06:39:28;;;;;;;;;;;17.00;99.90;;;;;;5103786;28;20295;-76
2022/06/23 06:41:57;;;;;;;;;;;17.20;99.90;;;;;;5112758;28;19928;-76
2022/06/23 06:44:23;;;;;;;;;;;17.30;99.90;;;;;;5113215;28;19920;-77
2022/06/23 06:46:49;;;;;;;;;;;17.50;99.90;;;;;;5112325;28;20284;-76
2022/06/23 06:49:18;;;;;;;;;;;17.60;99.90;;;;;;5111259;28;20402;-77
2022/06/23 06:51:44;;;;;;;;;;;17.80;99.90;;;;;;5117429;27;19966;-76
2022/06/23 06:54:15;;;;;;;;;;;17.90;99.90;;;;;;5133704;27;19919;-76
2022/06/23 06:56:43;;;;;;;;;;;18.00;99.90;;;;;;5133867;27;19928;-77
2022/06/23 06:59:19;;;;;;;;;;;18.10;99.90;;;;;;5119652;27;19919;-76
2022/06/23 07:01:48;;;;;;;;;;;18.20;99.90;;;;;;5112622;28;20352;-76
2022/06/23 07:04:16;;;;;;;;;;;18.30;99.90;;;;;;5126058;27;19919;-76
2022/06/23 07:06:44;;;;;;;;;;;18.40;99.90;;;;;;5132708;27;19970;-77
2022/06/23 07:09:13;;;;;;;;;;;18.50;99.90;;;;;;5133387;27;19927;-76
2022/06/23 07:11:39;;;;;;;;;;;18.60;99.90;;;;;;5095955;28;20327;-77
2022/06/23 07:14:14;;;;;;;;;;;18.70;99.90;;;;;;5113737;27;19929;-76
2022/06/23 07:16:40;;;;;;;;;;;18.90;99.90;;;;;;5132611;27;19927;-77
2022/06/23 07:19:08;;;;;;;;;;;19.00;99.90;;;;;;5101868;28;19920;-77
2022/06/23 07:21:40;;;;;;;;;;;19.10;99.90;;;;;;5113225;27;19928;-77
2022/06/23 07:24:11;;;;;;;;;;;19.20;99.90;;;;;;5124753;27;19923;-76
2022/06/23 07:26:55;;;;;;;;;;;19.30;99.90;;;;;;5111344;27;19955;-77
2022/06/23 07:29:25;;;;;;;;;;;19.50;99.90;;;;;;5118495;27;19919;-76
2022/06/23 07:31:56;;;;;;;;;;;19.60;99.90;;;;;;5112530;28;19970;-76
2022/06/23 07:34:24;;;;;;;;;;;19.70;99.90;;;;;;5112351;28;20290;-76
2022/06/23 07:36:55;;;;;;;;;;;19.90;99.90;;;;;;5111014;28;19927;-76
2022/06/23 07:39:22;;;;;;;;;;;19.90;99.90;;;;;;5112185;28;19924;-76
2022/06/23 07:41:48;;;;;;;;;;;20.00;99.90;;;;;;5126586;27;19945;-76
2022/06/23 07:44:17;;;;;;;;;;;20.10;99.90;;;;;;5112057;28;19924;-77
2022/06/23 07:46:42;;;;;;;;;;;20.10;99.90;;;;;;5094259;28;19934;-77
2022/06/23 07:49:08;;;;;;;;;;;20.20;99.90;;;;;;5110536;28;19920;-76
2022/06/23 07:51:35;;;;;;;;;;;20.20;99.90;;;;;;5116028;27;20779;-77
2022/06/23 07:54:01;;;;;;;;;;;20.40;99.90;;;;;;5121382;27;20296;-76
2022/06/23 07:56:29;;;;;;;;;;;20.50;99.90;;;;;;5112643;27;19946;-77
2022/06/23 07:59:11;;;;;;;;;;;20.50;99.90;;;;;;5117608;27;20308;-77
2022/06/23 08:01:41;;;;;;;;;;;20.70;99.90;;;;;;5108348;28;19924;-76
2022/06/23 08:04:22;;;;;;;;;;;20.80;99.90;;;;;;5120130;27;19994;-77
2022/06/23 08:06:48;;;;;;;;;;;20.90;99.90;;;;;;5131018;27;20471;-77
2022/06/23 08:09:33;;;;;;;;;;;21.00;99.90;;;;;;5115106;27;19923;-77
2022/06/23 08:17:50;;;;;;;;;;;21.30;99.90;;;;;;5119536;27;20026;-76
2022/06/23 08:20:17;;;;;;;;;;;21.40;99.90;;;;;;5094762;28;19924;-77
2022/06/23 08:22:44;;;;;;;;;;;21.60;99.90;;;;;;5093715;28;19963;-77
2022/06/23 08:25:10;;;;;;;;;;;21.70;99.90;;;;;;5110908;28;19962;-76
2022/06/23 08:27:37;;;;;;;;;;;21.80;99.90;;;;;;5111534;28;19927;-76
2022/06/23 08:30:06;;;;;;;;;;;21.90;99.90;;;;;;5110331;28;19919;-76
2022/06/23 08:32:32;;;;;;;;;;;22.00;99.90;;;;;;5121181;28;19919;-77
2022/06/23 08:35:03;;;;;;;;;;;22.00;99.90;;;;;;5113839;28;19927;-77
2022/06/23 08:37:33;;;;;;;;;;;22.10;99.90;;;;;;5103342;28;20253;-76
2022/06/23 08:40:01;;;;;;;;;;;22.20;99.90;;;;;;5128108;28;19927;-76
2022/06/23 08:42:33;;;;;;;;;;;22.30;99.90;;;;;;5111289;28;20369;-76
2022/06/23 08:45:18;;;;;;;;;;;22.40;99.90;;;;;;5110887;28;19930;-77
2022/06/23 08:47:48;;;;;;;;;;;22.50;99.90;;;;;;5109410;28;19926;-76
2022/06/23 08:50:18;;;;;;;;;;;22.50;99.90;;;;;;5111096;28;20332;-76
2022/06/23 08:52:48;;;;;;;;;;;22.60;99.90;;;;;;5110191;28;19926;-76
2022/06/23 08:55:21;;;;;;;;;;;22.70;99.90;;;;;;5094073;28;19924;-76
2022/06/23 08:57:49;;;;;;;;;;;22.80;99.90;;;;;;5111143;28;20403;-76
2022/06/23 09:00:20;;;;;;;;;;;22.90;99.90;;;;;;5119991;28;19972;-77
2022/06/23 09:02:56;;;;;;;;;;;23.10;99.90;;;;;;5114781;28;19924;-76
2022/06/23 09:05:21;;;;;;;;;;;23.20;99.90;;;;;;5111375;28;19946;-76
2022/06/23 09:07:58;;;;;;;;;;;23.30;99.90;;;;;;5110199;28;19928;-76
2022/06/23 09:10:42;;;;;;;;;;;23.40;99.90;;;;;;5111244;28;19927;-76
2022/06/23 09:13:26;;;;;;;;;;;23.40;99.90;;;;;;5115243;28;19964;-76
2022/06/23 09:16:04;;;;;;;;;;;23.50;99.90;;;;;;5130659;28;20364;-76
2022/06/23 09:18:42;;;;;;;;;;;23.70;99.90;;;;;;5099327;28;20027;-76
2022/06/23 09:21:23;;;;;;;;;;;23.70;99.90;;;;;;5110109;28;19920;-76
2022/06/23 09:24:07;;;;;;;;;;;23.70;99.90;;;;;;5110332;28;19949;-76
2022/06/23 09:26:40;;;;;;;;;;;23.80;99.90;;;;;;5106643;28;19967;-76
2022/06/23 09:29:06;;;;;;;;;;;23.90;99.90;;;;;;5102154;28;19927;-76
2022/06/23 09:31:38;;;;;;;;;;;24.00;99.90;;;;;;5129770;28;19984;-76
2022/06/23 09:34:22;;;;;;;;;;;24.10;99.90;;;;;;5130164;28;19968;-77
2022/06/23 09:36:48;;;;;;;;;;;24.30;99.90;;;;;;5122580;28;19923;-76
2022/06/23 09:39:16;;;;;;;;;;;24.40;99.90;;;;;;5110130;28;19931;-76
2022/06/23 09:42:11;;;;;;;;;;;24.50;99.90;;;;;;5095555;28;19966;-76
2022/06/23 09:44:37;;;;;;;;;;;24.60;99.90;;;;;;5106522;27;19919;-76
2022/06/23 09:47:05;;;;;;;;;;;24.80;99.90;;;;;;5134271;27;20292;-76
2022/06/23 09:49:51;;;;;;;;;;;25.00;99.90;;;;;;5108634;27;19920;-76
2022/06/23 09:52:27;;;;;;;;;;;25.20;99.90;;;;;;5113776;28;19980;-76
2022/06/23 09:55:06;;;;;;;;;;;25.20;99.90;;;;;;5113249;28;19924;-76
2022/06/23 09:57:35;;;;;;;;;;;25.40;99.90;;;;;;5113891;28;19919;-76
2022/06/23 10:00:01;;;;;;;;;;;25.50;99.90;;;;;;5096621;28;19968;-76
2022/06/23 10:02:46;;;;;;;;;;;25.40;99.90;;;;;;5113781;28;19924;-76
2022/06/23 10:05:27;;;;;;;;;;;25.50;99.90;;;;;;5113539;28;19920;-76
2022/06/23 10:08:02;;;;;;;;;;;25.60;99.90;;;;;;5112535;28;20296;-76
2022/06/23 10:10:30;;;;;;;;;;;25.80;99.90;;;;;;5114005;28;19920;-77
2022/06/23 10:13:15;;;;;;;;;;;25.80;99.90;;;;;;5096606;28;19920;-76
2022/06/23 10:15:43;;;;;;;;;;;25.90;99.90;;;;;;5111499;28;19931;-77
2022/06/23 10:18:25;;;;;;;;;;;26.00;99.90;;;;;;5117730;27;19919;-76
2022/06/23 10:21:16;;;;;;;;;;;26.10;99.90;;;;;;5120348;27;20010;-76
2022/06/23 10:23:47;;;;;;;;;;;26.20;99.90;;;;;;5110898;27;19986;-77
2022/06/23 10:26:13;;;;;;;;;;;26.40;99.90;;;;;;5119860;27;19920;-76
2022/06/23 10:28:46;;;;;;;;;;;26.40;98.00;;;;;;5120660;27;19930;-76
2022/06/23 10:31:25;;;;;;;;;;;26.30;96.30;;;;;;5116400;27;19926;-77
2022/06/23 10:33:56;;;;;;;;;;;26.40;96.70;;;;;;5108405;28;20338;-77
2022/06/23 10:36:22;;;;;;;;;;;26.50;96.80;;;;;;5112433;28;19923;-76
2022/06/23 10:38:55;;;;;;;;;;;26.60;99.90;;;;;;5113283;28;19942;-76
2022/06/23 10:41:25;;;;;;;;;;;26.70;93.00;;;;;;5110692;27;20052;-76
2022/06/23 10:43:54;;;;;;;;;;;26.80;93.30;;;;;;5127524;27;19920;-77
2022/06/23 10:46:36;;;;;;;;;;;26.90;97.50;;;;;;5110369;27;19919;-77
2022/06/23 10:49:11;;;;;;;;;;;27.00;95.40;;;;;;5117826;27;19920;-77
2022/06/23 10:51:40;;;;;;;;;;;27.10;96.20;;;;;;5126225;27;20496;-77
2022/06/23 10:54:11;;;;;;;;;;;27.30;92.40;;;;;;5111565;28;19924;-77
2022/06/23 10:56:43;;;;;;;;;;;27.40;91.10;;;;;;5114647;27;20284;-76
2022/06/23 10:59:18;;;;;;;;;;;27.50;93.30;;;;;;5121104;27;19934;-77
2022/06/23 11:01:51;;;;;;;;;;;27.60;91.90;;;;;;5095465;28;20349;-77
2022/06/23 11:04:35;;;;;;;;;;;27.70;87.30;;;;;;5114018;28;20002;-76
2022/06/23 11:07:24;;;;;;;;;;;27.80;93.30;;;;;;5111721;28;19919;-76
2022/06/23 11:09:59;;;;;;;;;;;28.00;90.90;;;;;;5101642;28;19927;-76
2022/06/23 11:12:37;;;;;;;;;;;28.20;93.10;;;;;;5112459;28;19935;-76
2022/06/23 11:15:08;;;;;;;;;;;28.30;92.80;;;;;;5112334;28;19993;-77
2022/06/23 11:17:34;;;;;;;;;;;28.40;88.00;;;;;;5095312;28;19996;-77
2022/06/23 11:20:04;;;;;;;;;;;28.50;83.00;;;;;;5095611;28;20276;-77
2022/06/23 11:22:33;;;;;;;;;;;28.40;90.60;;;;;;5111923;28;20322;-76
2022/06/23 11:25:02;;;;;;;;;;;28.50;90.40;;;;;;5123689;27;19920;-76
2022/06/23 11:27:46;;;;;;;;;;;28.70;86.00;;;;;;5112370;28;20380;-77
2022/06/23 11:30:11;;;;;;;;;;;28.80;81.90;;;;;;5128495;27;19927;-76
2022/06/23 11:32:56;;;;;;;;;;;28.80;83.00;;;;;;5106658;28;20292;-77
2022/06/23 11:35:40;;;;;;;;;;;28.90;87.20;;;;;;5114345;27;19924;-76
2022/06/23 11:38:18;;;;;;;;;;;29.00;77.80;;;;;;5119140;27;20343;-76
2022/06/23 11:40:45;;;;;;;;;;;29.10;84.30;;;;;;5112018;28;19939;-76
2022/06/23 11:43:10;;;;;;;;;;;29.10;73.50;;;;;;5111420;28;19959;-76
2022/06/23 11:45:39;;;;;;;;;;;29.10;80.10;;;;;;5111938;28;19986;-76
2022/06/23 11:48:20;;;;;;;;;;;29.20;78.40;;;;;;5097536;28;20074;-76
2022/06/23 11:50:59;;;;;;;;;;;29.30;84.50;;;;;;5093780;28;19931;-76
2022/06/23 11:53:50;;;;;;;;;;;29.50;78.70;;;;;;5122187;27;19927;-76
2022/06/23 11:56:34;;;;;;;;;;;29.70;77.00;;;;;;5097457;28;19924;-76
2022/06/23 11:59:24;;;;;;;;;;;29.80;83.90;;;;;;5094647;28;20392;-76
2022/06/23 12:01:50;;;;;;;;;;;29.90;82.40;;;;;;5105949;27;19919;-76
2022/06/23 12:04:32;;;;;;;;;;;30.00;79.60;;;;;;5114912;27;19920;-76
2022/06/23 12:07:21;;;;;;;;;;;30.10;77.20;;;;;;5122645;27;19930;-76
2022/06/23 12:10:01;;;;;;;;;;;30.40;76.40;;;;;;5114485;27;19920;-76
2022/06/23 12:12:28;;;;;;;;;;;30.50;79.50;;;;;;5111575;28;19919;-77
2022/06/23 12:14:54;;;;;;;;;;;30.70;70.90;;;;;;5111516;28;19924;-77
2022/06/23 12:17:46;;;;;;;;;;;30.80;69.90;;;;;;5105364;28;19923;-77
2022/06/23 12:20:27;;;;;;;;;;;31.00;70.10;;;;;;5116368;27;19923;-77
2022/06/23 12:23:12;;;;;;;;;;;31.10;70.30;;;;;;5131103;27;20421;-76
2022/06/23 12:25:59;;;;;;;;;;;31.00;69.30;;;;;;5109091;27;19923;-77
2022/06/23 12:28:28;;;;;;;;;;;31.20;74.90;;;;;;5131505;27;19923;-77
2022/06/23 12:30:53;;;;;;;;;;;31.50;71.30;;;;;;5132051;27;19919;-76
2022/06/23 12:33:57;;;;;;;;;;;31.60;70.50;;;;;;5130144;27;19926;-76
2022/06/23 12:36:30;;;;;;;;;;;31.70;65.50;;;;;;5068662;28;19994;-76
2022/06/23 12:38:57;;;;;;;;;;;31.70;67.10;;;;;;5053147;28;20421;-76
2022/06/23 12:41:32;;;;;;;;;;;31.80;66.90;;;;;;5091285;28;19954;-76
2022/06/23 12:44:06;;;;;;;;;;;31.90;67.10;;;;;;5131816;28;20268;-77
2022/06/23 12:46:56;;;;;;;;;;;32.20;63.70;;;;;;5131247;28;19924;-77
2022/06/23 12:49:41;;;;;;;;;;;32.30;63.10;;;;;;5106388;28;19924;-76
2022/06/23 12:52:12;;;;;;;;;;;32.50;70.50;;;;;;5095899;28;19920;-77
2022/06/23 12:54:46;;;;;;;;;;;32.80;63.70;;;;;;5108946;28;19923;-77
2022/06/23 12:57:31;;;;;;;;;;;33.00;62.90;;;;;;5110808;28;19930;-77
2022/06/23 13:00:15;;;;;;;;;;;33.30;62.70;;;;;;5115257;28;19919;-76
2022/06/23 13:02:43;;;;;;;;;;;33.50;54.50;;;;;;5118114;28;19926;-77
2022/06/23 13:05:18;;;;;;;;;;;33.50;53.90;;;;;;5108567;28;19935;-77
2022/06/23 13:07:50;;;;;;;;;;;33.50;56.80;;;;;;5091045;28;20418;-77
2022/06/23 13:10:20;;;;;;;;;;;33.70;72.00;;;;;;5128662;28;19923;-77
2022/06/23 13:12:57;;;;;;;;;;;33.80;68.90;;;;;;5121602;27;19924;-77
2022/06/23 13:15:39;;;;;;;;;;;33.90;58.10;;;;;;5111706;28;20373;-77
2022/06/23 13:18:11;;;;;;;;;;;33.90;54.50;;;;;;5114819;28;19993;-77
2022/06/23 13:21:09;;;;;;;;;;;34.00;56.00;;;;;;5115233;28;20241;-77
2022/06/23 13:23:57;;;;;;;;;;;34.30;58.10;;;;;;5085959;27;20389;-77
2022/06/23 13:26:25;;;;;;;;;;;34.40;57.40;;;;;;5102329;28;19926;-77
2022/06/23 13:28:57;;;;;;;;;;;34.40;53.00;;;;;;5119550;27;19919;-77
2022/06/23 13:31:49;;;;;;;;;;;34.50;57.00;;;;;;5121956;27;19927;-78
2022/06/23 13:34:17;;;;;;;;;;;34.50;52.50;;;;;;5097819;28;19924;-78
2022/06/23 13:37:02;;;;;;;;;;;34.60;52.10;;;;;;5113688;28;19962;-78
2022/06/23 13:39:30;;;;;;;;;;;34.60;53.30;;;;;;5114077;28;19924;-77
2022/06/23 13:41:56;;;;;;;;;;;34.70;55.00;;;;;;5114364;28;20387;-78
2022/06/23 13:44:26;;;;;;;;;;;34.70;53.00;;;;;;5113911;28;19947;-77
2022/06/23 13:46:55;;;;;;;;;;;34.70;50.50;;;;;;5114364;28;19972;-77
2022/06/23 13:49:31;;;;;;;;;;;34.90;54.10;;;;;;5112758;27;19927;-77
2022/06/23 13:52:01;;;;;;;;;;;35.00;50.60;;;;;;5102753;28;20292;-77
2022/06/23 13:54:32;;;;;;;;;;;35.20;52.60;;;;;;5113473;28;20002;-77
2022/06/23 13:57:05;;;;;;;;;;;35.40;50.50;;;;;;5114466;28;19923;-77
2022/06/23 13:59:34;;;;;;;;;;;35.70;52.70;;;;;;5127377;27;19919;-77
2022/06/23 14:02:03;;;;;;;;;;;35.90;52.50;;;;;;5097303;28;20002;-77
2022/06/23 14:04:37;;;;;;;;;;;35.90;56.40;;;;;;5113606;28;20431;-77
2022/06/23 14:07:16;;;;;;;;;;;36.10;50.10;;;;;;5123289;27;19919;-77
2022/06/23 14:09:48;;;;;;;;;;;36.20;51.00;;;;;;5100255;28;20313;-77
2022/06/23 14:12:13;;;;;;;;;;;36.80;49.20;;;;;;5114195;28;20014;-78
2022/06/23 14:14:42;;;;;;;;;;;36.90;55.50;;;;;;5114695;28;20053;-74
2022/06/23 14:17:11;;;;;;;;;;;36.90;49.40;;;;;;5122386;27;19973;-77
2022/06/23 14:19:37;;;;;;;;;;;36.70;47.10;;;;;;5119085;27;19919;-77
2022/06/23 14:22:04;;;;;;;;;;;36.80;49.40;;;;;;5119554;27;19927;-77
2022/06/23 14:24:49;;;;;;;;;;;36.90;53.30;;;;;;5120285;27;20006;-77
2022/06/23 14:27:20;;;;;;;;;;;37.10;47.30;;;;;;5100482;28;20086;-77
2022/06/23 14:29:46;;;;;;;;;;;37.10;48.40;;;;;;5114571;28;19930;-76
2022/06/23 14:32:21;;;;;;;;;;;37.40;46.30;;;;;;5133591;27;19919;-77
2022/06/23 14:34:52;;;;;;;;;;;37.50;46.20;;;;;;5119728;27;19968;-77
2022/06/23 14:37:17;;;;;;;;;;;37.70;46.40;;;;;;5118378;27;19923;-77
2022/06/23 14:39:49;;;;;;;;;;;37.60;50.30;;;;;;5135445;27;19926;-77
2022/06/23 14:42:33;;;;;;;;;;;37.50;44.70;;;;;;5128669;27;19924;-77
2022/06/23 14:45:02;;;;;;;;;;;37.80;45.40;;;;;;5113576;28;20023;-74
2022/06/23 14:47:52;;;;;;;;;;;38.00;45.40;;;;;;5112729;28;19927;-77
2022/06/23 14:50:18;;;;;;;;;;;38.30;46.70;;;;;;5089085;27;19920;-78
2022/06/23 14:52:49;;;;;;;;;;;38.80;46.00;;;;;;5127155;27;19927;-77
2022/06/23 14:55:38;;;;;;;;;;;39.30;47.00;;;;;;5132179;27;19931;-77
2022/06/23 14:58:10;;;;;;;;;;;39.50;47.20;;;;;;5095408;27;20490;-78
2022/06/23 15:00:37;;;;;;;;;;;39.50;50.60;;;;;;5133223;27;19927;-77